createdAt,value
2019-01-19T00:00:23.432Z,29.37
2019-01-19T00:03:03.810Z,24.95
2019-01-19T00:06:02.373Z,28.00
2019-01-19T00:08:33.925Z,24.35
2019-01-19T00:11:20.404Z,24.98
2019-01-19T00:14:00.899Z,24.53
2019-01-19T00:16:57.859Z,25.00
2019-01-19T00:19:32.861Z,23.92
2019-01-19T00:22:15.852Z,24.50
2019-01-19T00:25:04.886Z,23.25
2019-01-19T00:27:58.663Z,24.05
2019-01-19T00:30:33.197Z,25.10
2019-01-19T00:33:19.599Z,23.70
2019-01-19T00:35:53.993Z,23.83
2019-01-19T00:38:34.180Z,24.52
2019-01-19T00:41:38.431Z,26.10
2019-01-19T00:44:09.917Z,23.80
2019-01-19T00:46:47.137Z,25.10
2019-01-19T00:49:17.797Z,25.12
2019-01-19T00:52:06.764Z,26.07
2019-01-19T00:54:38.480Z,25.08
2019-01-19T00:57:09.971Z,24.35
2019-01-19T00:59:38.525Z,25.77
2019-01-19T01:02:22.253Z,26.42
2019-01-19T01:05:11.994Z,25.80
2019-01-19T01:08:17.780Z,25.60
2019-01-19T01:10:56.903Z,27.00
2019-01-19T01:13:40.500Z,26.80
2019-01-19T01:16:20.691Z,27.30
2019-01-19T01:19:07.279Z,27.45
2019-01-19T01:21:50.595Z,27.22
2019-01-19T01:24:28.967Z,28.35
2019-01-19T01:27:09.298Z,27.20
2019-01-19T01:30:09.704Z,27.67
2019-01-19T01:32:56.335Z,27.62
2019-01-19T01:35:32.554Z,29.63
2019-01-19T01:38:12.788Z,28.92
2019-01-19T01:40:58.845Z,28.92
2019-01-19T01:43:38.931Z,28.83
2019-01-19T01:46:10.419Z,28.70
2019-01-19T01:48:53.910Z,28.25
2019-01-19T01:51:47.842Z,30.37
2019-01-19T01:54:22.039Z,31.02
2019-01-19T01:56:50.480Z,31.57
2019-01-19T01:59:36.789Z,29.30
2019-01-19T02:02:19.291Z,30.27
2019-01-19T02:05:18.794Z,29.02
2019-01-19T02:08:07.018Z,29.03
2019-01-19T02:10:44.952Z,29.95
2019-01-19T02:13:27.660Z,28.92
2019-01-19T02:16:11.259Z,29.73
2019-01-19T02:18:48.563Z,29.07
2019-01-19T02:21:34.841Z,31.00
2019-01-19T02:24:06.325Z,28.02
2019-01-19T02:26:45.439Z,28.25
2019-01-19T02:29:34.899Z,27.45
2019-01-19T02:32:17.812Z,27.13
2019-01-19T02:34:58.311Z,27.50
2019-01-19T02:38:06.647Z,27.55
2019-01-19T02:40:48.984Z,27.98
2019-01-19T02:43:23.234Z,27.58
2019-01-19T02:46:03.413Z,25.30
2019-01-19T02:48:40.438Z,25.45
2019-01-19T02:51:17.762Z,26.40
2019-01-19T02:53:55.042Z,26.90
2019-01-19T02:56:32.395Z,25.45
2019-01-19T02:59:06.964Z,25.82
2019-01-19T03:01:41.121Z,25.05
2019-01-19T03:04:29.069Z,22.98
2019-01-19T03:07:17.229Z,23.35
2019-01-19T03:10:17.651Z,23.15
2019-01-19T03:13:08.614Z,22.75
2019-01-19T03:16:02.108Z,22.15
2019-01-19T03:18:39.200Z,22.27
2019-01-19T03:21:34.218Z,22.85
2019-01-19T03:24:17.533Z,23.65
2019-01-19T03:26:54.624Z,21.62
2019-01-19T03:29:35.181Z,21.60
2019-01-19T03:32:15.637Z,20.65
2019-01-19T03:35:12.768Z,21.77
2019-01-19T03:37:50.267Z,22.82
2019-01-19T03:40:44.130Z,22.35
2019-01-19T03:43:40.846Z,21.93
2019-01-19T03:46:12.914Z,20.25
2019-01-19T03:48:53.366Z,20.45
2019-01-19T03:51:33.560Z,22.15
2019-01-19T03:54:07.755Z,20.43
2019-01-19T03:56:51.554Z,21.87
2019-01-19T03:59:46.030Z,20.27
2019-01-19T04:02:26.075Z,20.43
2019-01-19T04:05:03.164Z,23.42
2019-01-19T04:07:49.288Z,21.62
2019-01-19T04:10:26.845Z,21.25
2019-01-19T04:13:07.064Z,22.60
2019-01-19T04:15:57.896Z,21.40
2019-01-19T04:18:53.426Z,22.73
2019-01-19T04:21:46.142Z,21.93
2019-01-19T04:24:24.046Z,22.07
2019-01-19T04:26:52.704Z,24.67
2019-01-19T04:29:21.119Z,24.50
2019-01-19T04:31:49.536Z,23.25
2019-01-19T04:34:18.202Z,24.37
2019-01-19T04:36:46.787Z,26.20
2019-01-19T04:39:15.184Z,24.82
2019-01-19T04:41:43.597Z,24.10
2019-01-19T04:44:12.000Z,24.27
2019-01-19T04:46:40.712Z,23.07
2019-01-19T04:49:09.694Z,23.87
2019-01-19T04:51:38.084Z,24.87
2019-01-19T04:54:06.480Z,24.43
2019-01-19T04:56:34.892Z,25.10
2019-01-19T04:59:03.302Z,25.10
2019-01-19T05:01:31.783Z,25.72
2019-01-19T05:04:00.180Z,25.72
2019-01-19T05:06:30.559Z,25.88
2019-01-19T05:08:58.723Z,25.95
2019-01-19T05:11:27.153Z,25.12
2019-01-19T05:13:55.551Z,25.55
2019-01-19T05:16:24.203Z,25.97
2019-01-19T05:18:52.607Z,26.73
2019-01-19T05:21:21.383Z,27.00
2019-01-19T05:23:49.971Z,31.10
2019-01-19T05:26:18.379Z,33.25
2019-01-19T05:28:46.793Z,28.35
2019-01-19T05:31:15.213Z,28.92
2019-01-19T05:33:46.541Z,29.67
2019-01-19T05:36:14.952Z,29.18
2019-01-19T05:38:43.395Z,31.90
2019-01-19T05:41:11.787Z,31.12
2019-01-19T05:43:40.207Z,31.15
2019-01-19T05:46:08.615Z,31.75
2019-01-19T05:48:37.028Z,31.52
2019-01-19T05:51:05.428Z,31.12
2019-01-19T05:53:34.388Z,33.58
2019-01-19T05:56:02.799Z,32.10
2019-01-19T05:58:31.221Z,32.83
2019-01-19T06:00:59.621Z,34.08
2019-01-19T06:03:28.035Z,33.42
2019-01-19T06:05:56.614Z,33.33
2019-01-19T06:08:25.041Z,33.40
2019-01-19T06:10:53.413Z,34.03
2019-01-19T06:13:21.825Z,35.50
2019-01-19T06:15:50.250Z,36.63
2019-01-19T06:18:18.699Z,39.05
2019-01-19T06:20:47.098Z,40.17
2019-01-19T06:23:15.506Z,38.73
2019-01-19T06:25:43.920Z,38.10
2019-01-19T06:28:12.337Z,39.50
2019-01-19T06:30:40.767Z,37.38
2019-01-19T06:33:09.177Z,38.92
2019-01-19T06:35:37.594Z,38.85
2019-01-19T06:38:05.996Z,37.83
2019-01-19T06:40:34.421Z,39.50
2019-01-19T06:43:02.932Z,40.40
2019-01-19T06:45:31.328Z,39.70
2019-01-19T06:47:59.745Z,39.20
2019-01-19T06:50:28.210Z,40.55
2019-01-19T06:52:56.638Z,40.38
2019-01-19T06:55:27.792Z,39.85
2019-01-19T06:57:56.259Z,40.40
2019-01-19T07:00:24.676Z,41.73
2019-01-19T07:02:53.084Z,41.90
2019-01-19T07:05:21.600Z,39.43
2019-01-19T07:07:50.002Z,40.00
2019-01-19T07:10:23.831Z,41.00
2019-01-19T07:12:52.233Z,40.60
2019-01-19T07:15:21.640Z,41.98
2019-01-19T07:17:50.046Z,39.90
2019-01-19T07:20:27.051Z,39.67
2019-01-19T07:22:55.454Z,40.92
2019-01-19T07:25:23.877Z,40.33
2019-01-19T07:27:52.358Z,40.55
2019-01-19T07:30:21.096Z,39.15
2019-01-19T07:32:49.568Z,41.80
2019-01-19T07:35:18.155Z,42.17
2019-01-19T07:37:46.560Z,42.03
2019-01-19T07:40:17.685Z,41.58
2019-01-19T07:42:48.311Z,42.30
2019-01-19T07:45:16.805Z,44.60
2019-01-19T07:47:45.644Z,41.25
2019-01-19T07:50:16.203Z,45.28
2019-01-19T07:52:44.869Z,46.63
2019-01-19T07:55:15.308Z,45.52
2019-01-19T07:57:43.723Z,43.90
2019-01-19T08:00:30.006Z,45.38
2019-01-19T08:02:58.388Z,46.28
2019-01-19T08:05:26.791Z,44.60
2019-01-19T08:07:55.442Z,44.03
2019-01-19T08:10:23.855Z,44.53
2019-01-19T08:12:52.268Z,43.42
2019-01-19T08:15:23.491Z,43.15
2019-01-19T08:17:51.911Z,42.60
2019-01-19T08:20:20.397Z,43.83
2019-01-19T08:22:48.804Z,44.48
2019-01-19T08:25:17.279Z,45.55
2019-01-19T08:27:45.764Z,42.88
2019-01-19T08:30:25.203Z,42.10
2019-01-19T08:32:53.711Z,43.33
2019-01-19T08:35:22.440Z,43.13
2019-01-19T08:37:50.845Z,42.60
2019-01-19T08:40:33.920Z,41.23
2019-01-19T08:43:05.021Z,40.10
2019-01-19T08:45:34.425Z,39.83
2019-01-19T08:48:03.207Z,42.93
2019-01-19T08:50:31.664Z,46.28
2019-01-19T08:53:00.089Z,43.45
2019-01-19T08:55:28.487Z,41.00
2019-01-19T08:57:57.188Z,40.63
2019-01-19T09:00:25.606Z,38.70
2019-01-19T09:02:54.049Z,38.23
2019-01-19T09:05:22.458Z,36.45
2019-01-19T09:07:50.875Z,35.80
2019-01-19T09:10:19.748Z,34.77
2019-01-19T09:12:51.534Z,35.65
2019-01-19T09:15:22.236Z,33.10
2019-01-19T09:17:50.777Z,33.53
2019-01-19T09:20:19.242Z,34.48
2019-01-19T09:22:49.564Z,35.58
2019-01-19T09:25:17.983Z,31.20
2019-01-19T09:27:46.388Z,34.58
2019-01-19T09:30:20.648Z,33.65
2019-01-19T09:32:50.031Z,30.57
2019-01-19T09:35:18.708Z,30.52
2019-01-19T09:37:47.194Z,30.27
2019-01-19T09:40:16.959Z,29.72
2019-01-19T09:42:45.707Z,30.35
2019-01-19T09:45:19.227Z,29.25
2019-01-19T09:47:47.713Z,30.97
2019-01-19T09:50:20.312Z,30.68
2019-01-19T09:52:49.069Z,30.37
2019-01-19T09:55:17.646Z,29.57
2019-01-19T09:57:46.095Z,31.70
2019-01-19T10:00:55.920Z,31.97
2019-01-19T10:03:12.019Z,31.35
2019-01-19T10:05:40.433Z,30.68
2019-01-19T10:08:08.853Z,30.08
2019-01-19T10:10:37.259Z,30.30
2019-01-19T10:13:05.728Z,27.82
2019-01-19T10:15:34.130Z,29.80
2019-01-19T10:18:02.563Z,30.02
2019-01-19T10:20:31.540Z,28.92
2019-01-19T10:22:59.971Z,29.87
2019-01-19T10:25:28.359Z,31.17
2019-01-19T10:27:56.779Z,28.90
2019-01-19T10:30:29.867Z,28.83
2019-01-19T10:32:58.282Z,32.33
2019-01-19T10:35:26.732Z,32.15
2019-01-19T10:37:56.712Z,30.30
2019-01-19T10:40:25.432Z,33.75
2019-01-19T10:42:53.977Z,33.73
2019-01-19T10:45:25.103Z,34.90
2019-01-19T10:47:53.947Z,32.93
2019-01-19T10:50:22.714Z,30.05
2019-01-19T10:52:51.399Z,35.23
2019-01-19T10:55:22.357Z,33.10
2019-01-19T10:57:50.786Z,32.42
2019-01-19T11:00:22.024Z,34.70
2019-01-19T11:02:50.442Z,33.18
2019-01-19T11:05:18.933Z,33.40
2019-01-19T11:07:48.819Z,31.73
2019-01-19T11:10:19.673Z,34.38
2019-01-19T11:12:48.078Z,31.50
2019-01-19T11:15:18.301Z,31.50
2019-01-19T11:17:46.944Z,29.75
2019-01-19T11:20:23.826Z,30.77
2019-01-19T11:22:52.218Z,30.72
2019-01-19T11:25:21.063Z,30.23
2019-01-19T11:27:49.487Z,28.57
2019-01-19T11:30:25.999Z,30.02
2019-01-19T11:32:54.472Z,30.20
2019-01-19T11:35:23.268Z,28.85
2019-01-19T11:37:51.803Z,29.70
2019-01-19T11:40:22.859Z,27.22
2019-01-19T11:42:51.256Z,25.20
2019-01-19T11:45:21.515Z,23.20
2019-01-19T11:47:49.915Z,25.70
2019-01-19T11:50:18.723Z,24.10
2019-01-19T11:52:47.203Z,25.90
2019-01-19T11:55:21.500Z,26.07
2019-01-19T11:57:56.019Z,27.50
2019-01-19T12:00:27.170Z,26.43
2019-01-19T12:02:55.643Z,26.93
2019-01-19T12:05:24.060Z,25.23
2019-01-19T12:07:52.494Z,22.85
2019-01-19T12:10:23.467Z,22.55
2019-01-19T12:12:51.878Z,22.22
2019-01-19T12:15:20.336Z,21.40
2019-01-19T12:17:48.823Z,20.80
2019-01-19T12:20:22.758Z,21.50
2019-01-19T12:22:51.542Z,20.70
2019-01-19T12:25:22.301Z,19.25
2019-01-19T12:27:50.724Z,21.85
2019-01-19T12:30:27.720Z,22.65
2019-01-19T12:32:56.659Z,19.98
2019-01-19T12:35:25.052Z,21.95
2019-01-19T12:37:53.807Z,21.65
2019-01-19T12:40:27.098Z,21.45
2019-01-19T12:42:57.952Z,19.65
2019-01-19T12:45:41.370Z,21.90
2019-01-19T12:48:11.741Z,21.15
2019-01-19T12:50:40.507Z,20.70
2019-01-19T12:53:09.181Z,19.02
2019-01-19T12:55:37.576Z,18.60
2019-01-19T12:58:07.223Z,19.57
2019-01-19T13:00:35.949Z,20.25
2019-01-19T13:03:05.209Z,21.17
2019-01-19T13:05:54.361Z,20.40
2019-01-19T13:08:26.119Z,20.20
2019-01-19T13:11:12.363Z,23.85
2019-01-19T13:13:44.014Z,20.30
2019-01-19T13:16:30.773Z,20.77
2019-01-19T13:19:13.856Z,20.92
2019-01-19T13:22:12.156Z,20.30
2019-01-19T13:24:52.369Z,20.17
2019-01-19T13:27:43.059Z,19.85
2019-01-19T13:30:23.965Z,19.12
2019-01-19T13:33:01.109Z,20.10
2019-01-19T13:36:07.476Z,21.52
2019-01-19T13:39:02.529Z,20.48
2019-01-19T13:41:50.703Z,21.85
2019-01-19T13:44:43.196Z,22.47
2019-01-19T13:47:31.075Z,21.27
2019-01-19T13:50:11.227Z,21.40
2019-01-19T13:53:17.608Z,22.62
2019-01-19T13:55:52.011Z,23.25
2019-01-19T13:58:41.239Z,23.45
2019-01-19T14:01:33.600Z,23.85
2019-01-19T14:04:32.829Z,22.17
2019-01-19T14:07:21.032Z,21.82
2019-01-19T14:10:13.595Z,23.22
2019-01-19T14:12:45.064Z,22.07
2019-01-19T14:15:16.572Z,25.57
2019-01-19T14:17:57.072Z,23.90
2019-01-19T14:20:28.560Z,23.75
2019-01-19T14:23:25.327Z,24.90
2019-01-19T14:26:18.740Z,23.30
2019-01-19T14:28:59.049Z,22.48
2019-01-19T14:31:33.384Z,22.67
2019-01-19T14:34:16.247Z,21.93
2019-01-19T14:36:53.705Z,21.48
2019-01-19T14:39:41.843Z,20.77
2019-01-19T14:42:13.352Z,19.52
2019-01-19T14:45:15.075Z,18.57
2019-01-19T14:47:46.563Z,20.70
2019-01-19T14:50:18.042Z,21.60
2019-01-19T14:53:01.528Z,22.35
2019-01-19T14:55:59.018Z,24.02
2019-01-19T14:58:36.224Z,25.27
2019-01-19T15:01:39.417Z,25.90
2019-01-19T15:04:16.848Z,28.77
2019-01-19T15:07:15.332Z,24.90
2019-01-19T15:10:06.536Z,25.08
2019-01-19T15:12:52.917Z,24.40
2019-01-19T15:15:32.977Z,24.87
2019-01-19T15:18:10.000Z,25.07
2019-01-19T15:21:01.965Z,23.22
2019-01-19T15:23:33.774Z,25.20
2019-01-19T15:26:21.860Z,25.45
2019-01-19T15:28:53.356Z,23.83
2019-01-19T15:31:34.048Z,33.05
2019-01-19T15:34:29.992Z,25.77
2019-01-19T15:37:13.329Z,25.73
2019-01-19T15:39:47.380Z,24.10
2019-01-19T15:42:30.993Z,25.60
2019-01-19T15:45:20.345Z,26.30
2019-01-19T15:47:54.917Z,25.23
2019-01-19T15:50:45.992Z,25.50
2019-01-19T15:53:32.311Z,30.27
2019-01-19T15:56:21.523Z,27.17
2019-01-19T15:59:04.963Z,26.00
2019-01-19T16:01:42.106Z,28.15
2019-01-19T16:04:28.036Z,33.65
2019-01-19T16:07:11.304Z,28.70
2019-01-19T16:09:57.646Z,26.27
2019-01-19T16:12:37.856Z,25.90
2019-01-19T16:15:24.283Z,26.37
2019-01-19T16:18:22.435Z,26.15
2019-01-19T16:20:53.949Z,25.35
2019-01-19T16:23:40.588Z,27.35
2019-01-19T16:26:33.145Z,26.87
2019-01-19T16:29:07.461Z,27.07
2019-01-19T16:31:48.052Z,29.00
2019-01-19T16:34:39.398Z,26.42
2019-01-19T16:37:19.625Z,28.67
2019-01-19T16:40:13.373Z,26.75
2019-01-19T16:43:12.075Z,26.50
2019-01-19T16:45:52.269Z,26.70
2019-01-19T16:48:42.603Z,27.07
2019-01-19T16:51:22.872Z,24.87
2019-01-19T16:54:10.860Z,27.15
2019-01-19T16:56:51.296Z,24.87
2019-01-19T16:59:28.525Z,25.35
2019-01-19T17:02:18.105Z,25.95
2019-01-19T17:05:08.964Z,27.67
2019-01-19T17:08:04.593Z,24.10
2019-01-19T17:10:53.915Z,25.48
2019-01-19T17:13:31.171Z,28.27
2019-01-19T17:16:20.784Z,26.60
2019-01-19T17:18:52.272Z,25.43
2019-01-19T17:21:29.654Z,24.00
2019-01-19T17:24:23.829Z,24.35
2019-01-19T17:27:49.688Z,27.05
2019-01-19T17:30:33.148Z,25.70
2019-01-19T17:33:16.404Z,24.87
2019-01-19T17:36:04.464Z,26.57
2019-01-19T17:38:52.281Z,26.80
2019-01-19T17:41:35.636Z,24.98
2019-01-19T17:44:07.124Z,25.48
2019-01-19T17:46:47.718Z,28.52
2019-01-19T17:49:19.214Z,26.62
2019-01-19T17:51:56.855Z,28.55
2019-01-19T17:54:37.200Z,28.65
2019-01-19T17:57:28.328Z,26.62
2019-01-19T18:00:08.557Z,28.83
2019-01-19T18:02:40.081Z,29.32
2019-01-19T18:05:11.555Z,26.20
2019-01-19T18:08:07.184Z,28.05
2019-01-19T18:10:47.720Z,25.53
2019-01-19T18:13:37.155Z,24.52
2019-01-19T18:16:25.012Z,29.15
2019-01-19T18:19:11.848Z,32.15
2019-01-19T18:21:46.127Z,24.55
2019-01-19T18:24:38.335Z,26.57
2019-01-19T18:27:24.661Z,26.13
2019-01-19T18:30:18.788Z,25.00
2019-01-19T18:33:09.819Z,29.35
2019-01-19T18:36:03.741Z,32.88
2019-01-19T18:38:53.385Z,27.60
2019-01-19T18:41:50.821Z,27.20
2019-01-19T18:44:30.728Z,27.52
2019-01-19T18:47:25.236Z,25.30
2019-01-19T18:50:30.577Z,30.57
2019-01-19T18:53:18.744Z,27.15
2019-01-19T18:55:53.136Z,26.97
2019-01-19T18:58:33.574Z,31.60
2019-01-19T19:01:37.122Z,28.12
2019-01-19T19:04:40.387Z,28.90
2019-01-19T19:07:17.487Z,45.38
2019-01-19T19:10:01.926Z,26.55
2019-01-19T19:12:33.941Z,27.13
2019-01-19T19:15:23.283Z,29.92
2019-01-19T19:18:23.745Z,27.65
2019-01-19T19:21:10.256Z,28.63
2019-01-19T19:23:44.257Z,29.70
2019-01-19T19:26:33.131Z,30.48
2019-01-19T19:29:07.526Z,31.97
2019-01-19T19:31:45.141Z,31.02
2019-01-19T19:34:25.303Z,31.70
2019-01-19T19:36:59.365Z,32.88
2019-01-19T19:39:36.796Z,32.80
2019-01-19T19:42:32.044Z,35.00
2019-01-19T19:45:06.083Z,32.70
2019-01-19T19:47:40.018Z,33.80
2019-01-19T19:50:26.364Z,35.88
2019-01-19T19:52:54.798Z,37.15
2019-01-19T19:55:22.136Z,34.67
2019-01-19T19:57:51.446Z,36.53
2019-01-19T20:00:20.013Z,38.73
2019-01-19T20:02:48.458Z,38.75
2019-01-19T20:05:16.880Z,37.25
2019-01-19T20:07:45.298Z,36.58
2019-01-19T20:10:17.166Z,40.33
2019-01-19T20:12:43.856Z,40.45
2019-01-19T20:15:12.907Z,39.78
2019-01-19T20:17:41.319Z,41.73
2019-01-19T20:20:11.064Z,42.67
2019-01-19T20:22:39.501Z,39.42
2019-01-19T20:25:08.349Z,38.95
2019-01-19T20:27:36.780Z,38.95
2019-01-19T20:30:11.155Z,39.48
2019-01-19T20:32:39.569Z,34.00
2019-01-19T20:35:08.716Z,37.10
2019-01-19T20:37:37.144Z,37.23
2019-01-19T20:40:08.240Z,36.48
2019-01-19T20:42:36.676Z,34.80
2019-01-19T20:45:12.753Z,35.05
2019-01-19T20:47:41.223Z,39.10
2019-01-19T20:50:11.388Z,33.83
2019-01-19T20:52:39.802Z,34.77
2019-01-19T20:55:10.771Z,33.47
2019-01-19T20:57:39.249Z,37.30
2019-01-19T21:00:17.208Z,35.65
2019-01-19T21:02:45.671Z,36.15
2019-01-19T21:05:14.361Z,37.78
2019-01-19T21:07:42.764Z,34.92
2019-01-19T21:10:11.251Z,35.43
2019-01-19T21:12:39.650Z,38.85
2019-01-19T21:15:11.167Z,34.03
2019-01-19T21:17:40.659Z,36.53
2019-01-19T21:20:11.111Z,35.05
2019-01-19T21:22:39.513Z,35.03
2019-01-19T21:25:09.967Z,36.08
2019-01-19T21:27:38.390Z,35.63
2019-01-19T21:30:12.093Z,41.58
2019-01-19T21:32:40.578Z,36.13
2019-01-19T21:35:09.126Z,37.23
2019-01-19T21:37:37.580Z,37.83
2019-01-19T21:40:09.097Z,34.50
2019-01-19T21:42:37.518Z,34.65
2019-01-19T21:45:15.756Z,36.35
2019-01-19T21:47:44.156Z,34.00
2019-01-19T21:50:13.184Z,34.60
2019-01-19T21:52:41.601Z,36.05
2019-01-19T21:55:10.367Z,35.13
2019-01-19T21:57:39.598Z,38.97
2019-01-19T22:00:11.313Z,36.60
2019-01-19T22:02:39.756Z,36.17
2019-01-19T22:05:08.806Z,35.55
2019-01-19T22:07:37.240Z,37.50
2019-01-19T22:10:11.525Z,35.38
2019-01-19T22:12:39.937Z,40.28
2019-01-19T22:15:11.715Z,39.00
2019-01-19T22:17:41.332Z,37.38
2019-01-19T22:20:12.402Z,35.98
2019-01-19T22:22:42.229Z,39.18
2019-01-19T22:25:11.682Z,41.40
2019-01-19T22:27:41.792Z,37.03
2019-01-19T22:30:13.275Z,36.58
2019-01-19T22:32:41.748Z,36.30
2019-01-19T22:35:11.103Z,37.90
2019-01-19T22:37:39.541Z,38.97
2019-01-19T22:40:13.950Z,35.83
2019-01-19T22:42:42.353Z,36.98
2019-01-19T22:45:12.404Z,37.10
2019-01-19T22:47:40.814Z,39.50
2019-01-19T22:50:14.961Z,36.03
2019-01-19T22:52:43.373Z,35.38
2019-01-19T22:55:12.302Z,38.30
2019-01-19T22:57:40.782Z,36.05
2019-01-19T23:00:31.921Z,40.10
2019-01-19T23:03:00.379Z,35.85
2019-01-19T23:05:28.776Z,42.45
2019-01-19T23:07:57.208Z,36.48
2019-01-19T23:10:26.498Z,41.70
2019-01-19T23:12:54.919Z,39.45
2019-01-19T23:15:23.393Z,40.52
2019-01-19T23:17:51.825Z,43.08
2019-01-19T23:20:20.233Z,41.23
2019-01-19T23:22:48.732Z,39.03
2019-01-19T23:25:17.157Z,36.68
2019-01-19T23:27:45.555Z,41.08
2019-01-19T23:30:15.731Z,37.53
2019-01-19T23:32:44.192Z,37.45
2019-01-19T23:35:12.645Z,36.80
2019-01-19T23:37:41.070Z,40.12
2019-01-19T23:40:12.451Z,38.65
2019-01-19T23:42:47.052Z,39.65
2019-01-19T23:45:11.317Z,38.25
2019-01-19T23:47:39.733Z,38.73
2019-01-19T23:50:09.788Z,38.35
2019-01-19T23:52:38.273Z,38.48
2019-01-19T23:55:07.116Z,38.65
2019-01-19T23:57:35.528Z,38.73
